This is the latest recevied weather packets stored in our database for station/object AA8FM-13. If no packets are shown the sender has not sent any weather packets the latest 10 day(s).
| Time | Temp. | Humidity | Pressure | Rain* | Wind** | Luminosity | Snow |
|---|---|---|---|---|---|---|---|
| 1777592925 | 10.56° C | 78% | 1011.3 hPa | 0 mm | - | 6 W/m² | - |
| 1777592620 | 10.56° C | 77% | 1011.3 hPa | 0 mm | - | 10 W/m² | - |
| 1777592316 | 10.56° C | 76% | 1011.3 hPa | 0 mm | - | 13 W/m² | - |
| 1777592012 | 10.56° C | 75% | 1011.4 hPa | 0 mm | - | 5 W/m² | - |
| 1777591708 | 10.56° C | 75% | 1011.1 hPa | 0 mm | - | 10 W/m² | - |
| 1777591399 | 10.56° C | 75% | 1011.1 hPa | 0 mm | - | 14 W/m² | - |
| 1777591094 | 10.56° C | 74% | 1011.2 hPa | 0 mm | - | 21 W/m² | - |
| 1777590790 | 11.11° C | 70% | 1011.2 hPa | 0 mm | - | 23 W/m² | - |
| 1777590481 | 11.11° C | 68% | 1011.1 hPa | 0 mm | - | 9 W/m² | - |
| 1777590178 | 11.11° C | 67% | 1010.9 hPa | 0 mm | - | 14 W/m² | - |
| 1777589874 | 11.11° C | 67% | 1010.9 hPa | 0 mm | - | 27 W/m² | - |
| 1777589569 | 11.11° C | 67% | 1011 hPa | 0 mm | - | 53 W/m² | - |
| 1777589268 | 11.11° C | 68% | 1010.8 hPa | 0 mm | - | 43 W/m² | - |
| 1777588964 | 11.67° C | 66% | 1011 hPa | 0 mm | - | 43 W/m² | - |
| 1777588660 | 12.22° C | 64% | 1010.7 hPa | 0 mm | - | 64 W/m² | - |
| 1777588356 | 12.78° C | 62% | 1011 hPa | 0 mm | - | 145 W/m² | - |
| 1777588052 | 12.78° C | 62% | 1011 hPa | 0 mm | - | 168 W/m² | - |
| 1777587748 | 12.22° C | 67% | 1010.9 hPa | 0 mm | - | 174 W/m² | - |
| 1777587442 | 12.22° C | 64% | 1010.8 hPa | 0 mm | - | 67 W/m² | - |
| 1777587140 | 12.22° C | 64% | 1011.1 hPa | 0 mm | - | 152 W/m² | - |
| 1777586835 | 12.78° C | 64% | 1010.9 hPa | 0 mm | - | 66 W/m² | - |
| 1777586530 | 12.22° C | 65% | 1011 hPa | 0 mm | - | 158 W/m² | - |
| 1777586226 | 11.67° C | 66% | 1011 hPa | 0 mm | - | 147 W/m² | - |
| 1777585923 | 11.67° C | 65% | 1011 hPa | 0 mm | - | 91 W/m² | - |
| 1777585618 | 12.22° C | 64% | 1010.9 hPa | 0 mm | - | 282 W/m² | - |
* Rain latest hour (hover to see other rain measurements)
** Current wind speed in m/s (hover to see current wind gust speed)